Time;durP1;ratioP1;P1;durP2;ratioP2;P2;SDS_P1;SDS_P2;PMS_P1;PMS_P2;Temp;Humidity;BMP_temperature;BMP_pressure;BME280_temperature;BME280_humidity;BME280_pressure;Samples;Min_cycle;Max_cycle;Signal;HPM_P1;HPM_P2
2023/09/15 00:01:22;;;;;;;3.70;1.80;;;;;;;11.38;80.86;101184.82;108905;278;38252;-75
2023/09/15 00:04:02;;;;;;;5.00;2.10;;;;;;;11.34;80.76;101189.83;108897;278;40642;-73
2023/09/15 00:06:46;;;;;;;3.50;1.90;;;;;;;11.30;81.03;101192.58;108986;278;38184;-72
2023/09/15 00:09:22;;;;;;;3.50;1.90;;;;;;;11.25;80.89;101192.72;108953;278;38286;-72
2023/09/15 00:12:00;;;;;;;3.90;2.00;;;;;;;11.18;80.97;101195.52;108986;278;38325;-73
2023/09/15 00:14:34;;;;;;;3.90;1.90;;;;;;;11.11;80.94;101197.27;108966;278;38712;-73
2023/09/15 00:17:12;;;;;;;4.00;1.80;;;;;;;11.07;81.16;101200.37;108976;278;38278;-73
2023/09/15 00:19:46;;;;;;;2.90;1.80;;;;;;;11.06;81.45;101202.13;108971;278;38274;-73
2023/09/15 00:22:20;;;;;;;3.60;1.90;;;;;;;11.02;81.30;101204.52;108966;278;38555;-77
2023/09/15 00:24:55;;;;;;;2.50;1.70;;;;;;;10.97;81.32;101207.44;108969;278;38363;-73
2023/09/15 00:27:30;;;;;;;2.80;1.80;;;;;;;10.94;81.45;101207.34;108853;278;38798;-75
2023/09/15 00:30:04;;;;;;;3.10;1.70;;;;;;;10.92;81.50;101204.06;108941;278;39135;-73
2023/09/15 00:32:41;;;;;;;3.70;1.80;;;;;;;10.90;81.62;101208.13;108936;278;38302;-73
2023/09/15 00:35:16;;;;;;;3.90;1.90;;;;;;;10.87;81.67;101207.88;108928;278;39385;-75
2023/09/15 00:37:50;;;;;;;2.00;1.80;;;;;;;10.80;81.72;101211.17;108987;278;38577;-73
2023/09/15 00:40:25;;;;;;;2.60;1.70;;;;;;;10.74;81.66;101213.95;108984;278;38125;-72
2023/09/15 00:42:59;;;;;;;4.20;1.50;;;;;;;10.70;81.89;101217.55;108942;278;39683;-72
2023/09/15 00:45:33;;;;;;;2.80;1.80;;;;;;;10.68;81.95;101213.77;108969;278;38239;-73
2023/09/15 00:48:10;;;;;;;3.20;1.80;;;;;;;10.62;81.82;101213.38;108925;278;39471;-76
2023/09/15 00:50:44;;;;;;;2.20;1.70;;;;;;;10.57;81.91;101215.43;109004;278;39363;-72
2023/09/15 00:53:21;;;;;;;3.60;2.00;;;;;;;10.52;81.86;101221.67;108934;278;39093;-72
2023/09/15 00:55:56;;;;;;;2.20;1.60;;;;;;;10.47;82.08;101222.11;109022;278;38332;-72
2023/09/15 00:58:39;;;;;;;2.80;1.60;;;;;;;10.44;82.16;101229.70;108960;278;38514;-73
2023/09/15 01:01:16;;;;;;;;;;;;;;;10.41;82.32;101229.05;108921;278;38235;-71
2023/09/15 01:03:54;;;;;;;2.30;1.60;;;;;;;10.32;82.21;101229.64;108993;278;39988;-72
2023/09/15 01:06:32;;;;;;;2.50;1.40;;;;;;;10.28;82.36;101229.38;108929;278;38474;-71
2023/09/15 01:09:08;;;;;;;2.70;1.70;;;;;;;10.26;82.56;101230.27;108996;278;39658;-72
2023/09/15 01:11:42;;;;;;;3.00;1.60;;;;;;;10.23;82.59;101233.99;108911;278;38270;-72
2023/09/15 01:14:18;;;;;;;3.10;1.60;;;;;;;10.21;82.74;101239.61;108938;278;38136;-72
2023/09/15 01:17:00;;;;;;;2.90;1.80;;;;;;;10.18;82.57;101239.52;108972;278;38509;-72
2023/09/15 01:19:57;;;;;;;3.20;1.70;;;;;;;10.14;82.70;101244.48;108890;278;38476;-72
2023/09/15 01:23:04;;;;;;;2.60;1.80;;;;;;;10.08;82.66;101245.67;108884;278;39279;-72
2023/09/15 01:26:01;;;;;;;3.00;1.80;;;;;;;10.01;82.90;101249.48;108944;271;38566;-72
2023/09/15 01:29:07;;;;;;;3.00;1.60;;;;;;;9.95;82.93;101251.86;108878;279;38290;-72
2023/09/15 01:31:44;;;;;;;2.30;1.50;;;;;;;9.94;83.05;101252.07;108934;279;38986;-71
2023/09/15 01:34:21;;;;;;;3.60;1.70;;;;;;;9.94;83.20;101252.23;108958;279;38905;-72
2023/09/15 01:36:56;;;;;;;3.80;1.70;;;;;;;9.94;83.29;101253.64;108954;279;38665;-72
2023/09/15 01:39:32;;;;;;;2.80;1.50;;;;;;;9.93;83.27;101254.18;108934;279;39811;-72
2023/09/15 01:42:08;;;;;;;2.50;1.60;;;;;;;9.89;83.04;101252.18;108977;279;38448;-71
2023/09/15 01:44:49;;;;;;;1.90;1.50;;;;;;;9.86;83.37;101258.52;108922;279;39644;-72
2023/09/15 01:47:28;;;;;;;3.40;2.10;;;;;;;9.81;83.22;101259.48;108911;279;38827;-71
2023/09/15 01:50:08;;;;;;;4.50;1.80;;;;;;;9.77;83.44;101263.40;108897;279;38282;-72
2023/09/15 01:52:42;;;;;;;4.70;1.60;;;;;;;9.72;83.41;101263.33;108973;279;39922;-72
2023/09/15 01:55:17;;;;;;;3.40;1.90;;;;;;;9.67;83.63;101260.98;108847;279;38146;-73
2023/09/15 01:57:56;;;;;;;3.40;1.50;;;;;;;9.68;83.80;101266.70;108882;279;41044;-72
2023/09/15 02:00:39;;;;;;;5.10;1.80;;;;;;;9.69;83.88;101268.95;108859;279;38483;-71
2023/09/15 02:03:16;;;;;;;6.60;2.70;;;;;;;9.68;83.67;101268.27;108850;279;38251;-72
2023/09/15 02:06:00;;;;;;;3.30;1.70;;;;;;;9.64;83.61;101262.80;108855;279;39336;-73
2023/09/15 02:08:36;;;;;;;3.70;1.80;;;;;;;9.59;83.52;101263.58;108845;279;38730;-72
2023/09/15 02:11:12;;;;;;;3.10;2.00;;;;;;;9.55;83.66;101259.84;108922;279;39643;-72
2023/09/15 02:13:47;;;;;;;3.00;1.70;;;;;;;9.54;83.72;101262.98;108925;279;40099;-74
2023/09/15 02:16:27;;;;;;;2.30;1.50;;;;;;;9.53;83.66;101263.86;108890;279;38554;-72
2023/09/15 02:19:02;;;;;;;3.70;1.50;;;;;;;9.53;83.87;101267.02;108949;279;38635;-72
2023/09/15 02:21:38;;;;;;;3.20;1.80;;;;;;;9.53;84.01;101269.98;108182;279;902291;-72
2023/09/15 02:24:17;;;;;;;2.30;1.40;;;;;;;9.52;84.33;101271.02;108896;279;39283;-71
2023/09/15 02:26:52;;;;;;;3.20;2.00;;;;;;;9.51;84.09;101267.56;108900;279;39618;-71
2023/09/15 02:29:31;;;;;;;5.20;1.60;;;;;;;9.43;83.64;101269.30;108902;279;37897;-72
2023/09/15 02:32:12;;;;;;;2.80;1.90;;;;;;;9.38;83.85;101271.98;108944;279;39100;-72
2023/09/15 02:34:51;;;;;;;5.20;1.70;;;;;;;9.35;83.96;101271.01;108897;279;38260;-72
2023/09/15 02:37:25;;;;;;;2.90;1.60;;;;;;;9.34;83.87;101274.15;108807;279;38242;-71
2023/09/15 02:40:00;;;;;;;4.80;2.40;;;;;;;9.31;83.87;101276.81;108897;279;38136;-71
2023/09/15 02:42:38;;;;;;;6.30;2.30;;;;;;;9.26;83.72;101284.39;108926;279;38631;-72
2023/09/15 02:45:14;;;;;;;2.70;1.80;;;;;;;9.16;83.65;101283.02;108792;279;41320;-72
2023/09/15 02:47:49;;;;;;;3.10;1.70;;;;;;;9.12;83.78;101286.40;108221;279;902643;-72
2023/09/15 02:50:26;;;;;;;2.90;1.70;;;;;;;9.09;83.88;101288.70;108866;279;38179;-71
2023/09/15 02:53:00;;;;;;;1.70;1.40;;;;;;;9.09;84.20;101294.98;108873;279;38248;-71
2023/09/15 02:55:37;;;;;;;2.50;1.70;;;;;;;9.10;84.11;101296.86;108882;279;38251;-71
2023/09/15 02:58:12;;;;;;;2.40;1.90;;;;;;;9.11;84.19;101295.30;108972;279;38616;-71
2023/09/15 03:00:48;;;;;;;3.00;1.50;;;;;;;9.07;84.24;101294.30;108924;279;38221;-71
2023/09/15 03:03:24;;;;;;;2.00;1.70;;;;;;;9.02;84.21;101295.61;108965;279;39483;-71
2023/09/15 03:06:10;;;;;;;2.70;1.70;;;;;;;8.98;84.32;101299.33;108966;279;38167;-71
2023/09/15 03:08:47;;;;;;;2.30;1.60;;;;;;;8.95;84.34;101300.25;108957;279;39493;-71
2023/09/15 03:11:29;;;;;;;1.70;1.50;;;;;;;8.95;84.51;101303.05;108955;279;39329;-72
2023/09/15 03:14:05;;;;;;;3.00;1.80;;;;;;;8.95;84.61;101305.30;108785;279;176207;-72
2023/09/15 03:16:43;;;;;;;2.90;1.70;;;;;;;8.93;84.64;101306.38;108900;279;38305;-72
2023/09/15 03:19:18;;;;;;;2.70;1.80;;;;;;;8.88;84.24;101309.59;108959;279;38244;-72
2023/09/15 03:21:55;;;;;;;2.70;1.70;;;;;;;8.84;84.22;101308.61;108866;279;39374;-73
2023/09/15 03:24:36;;;;;;;4.20;2.00;;;;;;;8.80;84.19;101309.36;108896;279;38457;-72
2023/09/15 03:27:11;;;;;;;1.80;1.40;;;;;;;8.76;84.24;101311.86;108909;279;38173;-71
2023/09/15 03:29:49;;;;;;;4.80;2.00;;;;;;;8.73;84.44;101316.78;108891;279;38683;-71
2023/09/15 03:32:35;;;;;;;2.50;1.50;;;;;;;8.71;84.58;101317.86;108867;279;38909;-72
2023/09/15 03:35:13;;;;;;;3.60;1.90;;;;;;;8.69;84.85;101319.99;108934;279;38211;-72
2023/09/15 03:37:53;;;;;;;2.10;1.80;;;;;;;8.70;84.98;101325.00;108824;279;177116;-71
2023/09/15 03:40:30;;;;;;;2.80;2.00;;;;;;;8.68;84.71;101324.67;108924;279;38545;-71
2023/09/15 03:43:11;;;;;;;2.40;1.60;;;;;;;8.64;84.49;101329.96;108948;279;38176;-71
2023/09/15 03:45:52;;;;;;;4.10;1.70;;;;;;;8.61;84.52;101324.61;108940;279;39897;-71
2023/09/15 03:48:32;;;;;;;3.50;1.90;;;;;;;8.58;84.48;101328.48;109007;279;39650;-72
2023/09/15 03:51:08;;;;;;;3.40;2.00;;;;;;;8.54;84.28;101330.45;108896;279;38318;-71
2023/09/15 03:53:42;;;;;;;1.80;1.60;;;;;;;8.49;84.52;101336.62;108955;279;38288;-71
2023/09/15 03:56:17;;;;;;;3.20;2.50;;;;;;;8.46;84.47;101338.75;108911;279;39930;-71
2023/09/15 03:58:55;;;;;;;2.80;1.70;;;;;;;8.43;84.52;101345.57;108920;279;39442;-72
2023/09/15 04:01:31;;;;;;;2.30;1.60;;;;;;;8.43;84.66;101346.95;108858;279;38233;-71
2023/09/15 04:04:10;;;;;;;3.60;1.60;;;;;;;8.44;84.92;101347.30;108878;279;38224;-71
2023/09/15 04:06:46;;;;;;;2.20;1.60;;;;;;;8.40;84.66;101348.20;108697;279;40138;-71
2023/09/15 04:09:29;;;;;;;4.40;2.10;;;;;;;8.33;84.58;101349.32;108913;279;39330;-71
2023/09/15 04:12:04;;;;;;;2.60;1.70;;;;;;;8.33;84.99;101349.51;108881;279;38137;-71
2023/09/15 04:14:39;;;;;;;2.60;1.70;;;;;;;8.34;84.92;101350.70;108901;279;39054;-71
2023/09/15 04:17:15;;;;;;;2.80;1.80;;;;;;;8.34;84.97;101353.48;108874;279;38435;-71
2023/09/15 04:19:50;;;;;;;3.40;1.40;;;;;;;8.33;84.76;101352.64;108901;279;38364;-72
2023/09/15 04:22:24;;;;;;;3.10;2.00;;;;;;;8.30;84.93;101354.40;108837;279;40078;-72
2023/09/15 04:24:58;;;;;;;2.50;1.80;;;;;;;8.29;85.02;101353.20;108912;277;38543;-72
2023/09/15 04:27:33;;;;;;;2.70;2.10;;;;;;;8.28;85.06;101355.63;108926;279;38224;-72
2023/09/15 04:30:13;;;;;;;3.40;1.70;;;;;;;8.25;84.97;101357.06;108895;279;40947;-71
2023/09/15 04:32:50;;;;;;;2.10;1.60;;;;;;;8.23;84.85;101360.92;108817;279;38764;-71
2023/09/15 04:35:27;;;;;;;2.40;2.10;;;;;;;8.22;85.08;101359.53;109003;279;38307;-71
2023/09/15 04:38:07;;;;;;;2.40;1.50;;;;;;;8.24;85.35;101362.13;108961;279;39376;-70
2023/09/15 04:40:47;;;;;;;2.70;2.00;;;;;;;8.31;85.69;101364.13;108927;279;38234;-72
2023/09/15 04:43:24;;;;;;;2.90;2.00;;;;;;;8.38;86.02;101368.25;108918;279;38750;-71
2023/09/15 04:46:02;;;;;;;4.20;1.80;;;;;;;8.42;85.99;101369.75;108871;279;37871;-71
2023/09/15 04:48:38;;;;;;;3.40;1.90;;;;;;;8.44;85.77;101367.99;108883;279;38494;-72
2023/09/15 04:51:13;;;;;;;2.10;1.70;;;;;;;8.47;85.97;101365.34;108801;279;38753;-72
2023/09/15 04:53:48;;;;;;;2.50;1.70;;;;;;;8.50;85.97;101369.63;108863;279;38582;-71
2023/09/15 04:56:23;;;;;;;2.40;1.80;;;;;;;8.56;86.39;101372.86;108916;277;38184;-71
2023/09/15 04:59:01;;;;;;;3.10;1.70;;;;;;;8.61;86.44;101377.14;108879;279;38159;-73
2023/09/15 05:01:39;;;;;;;6.50;2.50;;;;;;;8.65;86.54;101375.88;108838;279;38260;-72
2023/09/15 05:04:14;;;;;;;3.40;2.00;;;;;;;8.70;86.65;101382.57;108888;279;38605;-70
2023/09/15 05:06:49;;;;;;;2.60;1.90;;;;;;;8.78;86.99;101386.47;108778;279;174377;-70
2023/09/15 05:09:24;;;;;;;3.70;2.00;;;;;;;8.90;87.55;101386.13;108855;279;38816;-70
2023/09/15 05:11:58;;;;;;;4.90;2.60;;;;;;;9.02;87.98;101390.83;108814;279;41802;-71
2023/09/15 05:14:32;;;;;;;3.90;2.60;;;;;;;9.13;88.39;101390.30;108854;279;39939;-71
2023/09/15 05:17:08;;;;;;;3.90;2.40;;;;;;;9.41;89.83;101390.53;108785;279;175359;-72
2023/09/15 05:19:47;;;;;;;4.30;2.50;;;;;;;9.99;91.99;101390.00;108979;279;38180;-70
2023/09/15 05:22:22;;;;;;;3.40;2.30;;;;;;;10.18;90.13;101392.77;108958;279;38181;-71
2023/09/15 05:24:58;;;;;;;3.20;2.10;;;;;;;10.27;88.97;101395.05;108938;279;39448;-71
2023/09/15 05:27:32;;;;;;;5.40;2.40;;;;;;;10.36;88.19;101398.72;108916;279;38152;-72
2023/09/15 05:30:15;;;;;;;5.00;2.00;;;;;;;10.55;88.33;101403.55;108859;279;39202;-72
2023/09/15 05:32:50;;;;;;;5.00;2.10;;;;;;;10.59;87.66;101405.22;108915;279;39904;-71
2023/09/15 05:35:24;;;;;;;3.50;1.90;;;;;;;10.60;87.15;101410.25;108881;279;38816;-72
2023/09/15 05:37:58;;;;;;;5.50;2.00;;;;;;;10.61;87.02;101412.86;108960;279;38148;-72
2023/09/15 05:40:33;;;;;;;4.10;2.20;;;;;;;10.62;86.86;101414.58;108913;279;38285;-72
2023/09/15 05:43:10;;;;;;;4.70;2.50;;;;;;;10.66;87.17;101415.02;108869;279;38185;-71
2023/09/15 05:45:44;;;;;;;5.60;2.40;;;;;;;10.71;87.11;101417.02;108909;279;38283;-73
2023/09/15 05:48:22;;;;;;;7.90;2.70;;;;;;;10.76;87.28;101417.40;108936;279;38238;-70
2023/09/15 05:50:57;;;;;;;6.40;3.00;;;;;;;10.99;88.34;101412.88;108864;279;39436;-71
2023/09/15 05:53:37;;;;;;;6.80;2.90;;;;;;;11.76;94.86;101414.98;108895;279;39520;-71
2023/09/15 05:56:14;;;;;;;8.40;2.60;;;;;;;12.83;100.00;101415.48;108906;279;40358;-72
2023/09/15 05:58:50;;;;;;;13.70;2.90;;;;;;;13.66;96.19;101414.92;108935;279;38244;-72
2023/09/15 06:01:27;;;;;;;10.70;3.00;;;;;;;14.48;91.05;101411.49;108886;279;38300;-72
2023/09/15 06:04:07;;;;;;;15.50;3.60;;;;;;;14.90;85.29;101412.31;108990;279;39462;-72
2023/09/15 06:06:42;;;;;;;13.40;3.10;;;;;;;15.03;81.59;101412.90;108956;279;39506;-72
2023/09/15 06:09:16;;;;;;;15.90;3.30;;;;;;;15.07;79.27;101410.77;108950;279;39674;-73
2023/09/15 06:11:52;;;;;;;16.90;3.70;;;;;;;15.02;77.33;101414.52;108951;279;39153;-73
2023/09/15 06:14:27;;;;;;;12.70;2.90;;;;;;;14.97;77.72;101417.66;108958;279;39651;-73
2023/09/15 06:17:09;;;;;;;11.90;2.50;;;;;;;14.98;77.07;101416.23;108961;279;38431;-73
2023/09/15 06:19:50;;;;;;;11.60;2.40;;;;;;;14.92;75.51;101417.86;108898;279;39761;-72
2023/09/15 06:22:28;;;;;;;9.30;2.60;;;;;;;14.83;75.25;101419.29;108227;279;897050;-74
2023/09/15 06:25:05;;;;;;;9.30;2.30;;;;;;;14.76;74.62;101420.09;108884;279;38393;-74
2023/09/15 06:27:41;;;;;;;8.00;2.70;;;;;;;14.65;74.37;101418.02;108869;279;39410;-75
2023/09/15 06:30:17;;;;;;;12.20;2.50;;;;;;;14.60;74.62;101418.25;108884;279;38473;-72
2023/09/15 06:32:51;;;;;;;19.10;3.30;;;;;;;14.55;74.67;101420.72;108759;279;174812;-74
2023/09/15 06:35:25;;;;;;;17.80;3.50;;;;;;;14.50;74.56;101417.91;108859;279;39304;-74
2023/09/15 06:38:00;;;;;;;18.10;4.10;;;;;;;14.51;75.07;101425.98;108887;279;38220;-74
2023/09/15 06:40:37;;;;;;;13.80;3.10;;;;;;;14.53;74.65;101423.08;108877;279;38482;-74
2023/09/15 06:43:11;;;;;;;10.50;3.30;;;;;;;14.69;74.67;101424.05;108918;279;38155;-75
2023/09/15 06:45:48;;;;;;;10.50;3.00;;;;;;;14.88;74.33;101422.09;108939;279;38269;-73
2023/09/15 06:48:25;;;;;;;10.20;2.70;;;;;;;14.95;73.75;101427.04;108891;279;38231;-73
2023/09/15 06:51:00;;;;;;;8.10;2.60;;;;;;;15.01;73.21;101429.63;108922;279;39561;-73
2023/09/15 06:53:36;;;;;;;13.90;3.60;;;;;;;15.00;72.54;101431.44;108937;279;38401;-73
2023/09/15 06:56:15;;;;;;;17.50;3.60;;;;;;;15.00;72.83;101429.54;108971;279;38621;-73
2023/09/15 06:58:54;;;;;;;18.80;3.60;;;;;;;15.05;72.76;101430.91;108556;279;38703;-73
2023/09/15 07:01:30;;;;;;;20.60;3.70;;;;;;;15.07;72.22;101432.74;108942;279;39693;-73
2023/09/15 07:04:04;;;;;;;6.30;2.70;;;;;;;15.08;71.83;101438.17;108828;279;174603;-75
2023/09/15 07:06:43;;;;;;;10.70;2.90;;;;;;;15.11;71.85;101440.65;108893;279;38309;-72
2023/09/15 07:09:19;;;;;;;11.40;3.20;;;;;;;15.23;71.27;101437.21;108955;279;38174;-73
2023/09/15 07:11:52;;;;;;;5.50;2.90;;;;;;;15.27;71.32;101440.55;108881;279;38144;-73
2023/09/15 07:14:27;;;;;;;14.20;2.80;;;;;;;15.38;71.39;101438.70;108941;279;39252;-73
2023/09/15 07:17:01;;;;;;;9.40;2.50;;;;;;;15.47;71.04;101439.58;108881;279;38161;-73
2023/09/15 07:19:35;;;;;;;4.80;1.90;;;;;;;15.53;70.84;101435.98;108934;279;38315;-73
2023/09/15 07:22:12;;;;;;;4.90;2.30;;;;;;;15.53;70.28;101439.30;108862;279;39401;-73
2023/09/15 07:24:47;;;;;;;18.20;3.00;;;;;;;15.58;70.47;101438.77;108893;279;38480;-72
2023/09/15 07:27:24;;;;;;;9.40;2.10;;;;;;;15.61;69.89;101437.05;108818;279;38310;-73
2023/09/15 07:30:03;;;;;;;11.90;2.30;;;;;;;15.59;69.33;101432.05;108843;279;172358;-73
2023/09/15 07:32:44;;;;;;;11.90;2.60;;;;;;;15.56;68.74;101431.64;108914;279;38772;-72
2023/09/15 07:35:24;;;;;;;6.90;2.20;;;;;;;15.53;69.14;101430.54;108908;279;39351;-73
2023/09/15 07:38:00;;;;;;;6.70;1.60;;;;;;;15.56;69.26;101434.44;108893;279;38411;-74
2023/09/15 07:40:34;;;;;;;9.70;2.20;;;;;;;15.57;68.73;101436.52;108903;279;38508;-73
2023/09/15 07:43:10;;;;;;;9.80;2.00;;;;;;;15.58;68.73;101433.66;108953;279;39331;-73
2023/09/15 07:45:48;;;;;;;7.70;1.70;;;;;;;15.60;68.27;101435.13;108895;279;39040;-74
2023/09/15 07:48:23;;;;;;;9.10;1.90;;;;;;;15.69;68.84;101436.20;108946;279;38822;-75
2023/09/15 07:51:06;;;;;;;7.50;2.10;;;;;;;15.81;68.76;101432.55;108924;279;38174;-74
2023/09/15 07:53:47;;;;;;;8.30;1.80;;;;;;;16.07;68.78;101435.64;108841;279;40514;-73
2023/09/15 07:56:23;;;;;;;10.00;3.50;;;;;;;16.40;69.06;101436.80;108875;279;39770;-73
2023/09/15 07:59:02;;;;;;;6.10;1.90;;;;;;;16.90;68.76;101436.29;109026;279;39435;-73
2023/09/15 08:01:36;;;;;;;4.90;1.60;;;;;;;17.58;67.48;101431.19;108922;279;39454;-74
2023/09/15 08:04:10;;;;;;;4.70;1.30;;;;;;;18.37;67.32;101426.92;108888;279;38285;-74
2023/09/15 08:06:46;;;;;;;8.10;1.70;;;;;;;19.43;65.80;101423.69;108882;279;38551;-74
2023/09/15 08:09:23;;;;;;;6.40;1.70;;;;;;;20.49;61.80;101421.38;108860;279;38216;-74
2023/09/15 08:11:59;;;;;;;3.80;2.10;;;;;;;21.18;58.32;101424.58;108916;279;38530;-74
2023/09/15 08:14:34;;;;;;;4.60;1.60;;;;;;;22.07;56.16;101421.20;108918;279;39471;-75
2023/09/15 08:17:12;;;;;;;6.80;1.70;;;;;;;22.94;53.86;101422.30;108902;279;38277;-76
2023/09/15 08:19:49;;;;;;;9.80;2.40;;;;;;;23.85;51.39;101421.56;108839;279;38868;-75
2023/09/15 08:22:33;;;;;;;9.10;2.30;;;;;;;24.41;47.83;101420.95;108917;279;38344;-75
2023/09/15 08:25:12;;;;;;;8.40;1.90;;;;;;;24.65;45.63;101421.17;108950;279;38761;-75
2023/09/15 08:27:48;;;;;;;5.70;1.80;;;;;;;24.90;44.41;101421.30;108919;279;38471;-74
2023/09/15 08:30:29;;;;;;;7.70;1.60;;;;;;;25.11;43.98;101425.46;108954;279;38161;-76
2023/09/15 08:33:05;;;;;;;5.30;1.70;;;;;;;25.26;43.67;101422.48;108975;279;40078;-77
2023/09/15 08:35:40;;;;;;;5.60;1.60;;;;;;;25.21;43.16;101426.03;108986;279;38178;-78
2023/09/15 08:38:16;;;;;;;4.00;1.80;;;;;;;25.06;41.61;101421.23;108983;279;39622;-76
2023/09/15 08:40:55;;;;;;;3.90;1.30;;;;;;;24.89;41.90;101422.05;108909;279;38605;-76
2023/09/15 08:43:32;;;;;;;3.40;1.30;;;;;;;25.06;41.77;101420.65;108836;279;38635;-74
2023/09/15 08:46:08;;;;;;;4.40;1.60;;;;;;;25.28;41.22;101416.22;108886;279;38212;-76
2023/09/15 08:48:55;;;;;;;5.30;1.20;;;;;;;25.58;40.92;101416.86;108913;279;38590;-76
2023/09/15 08:51:29;;;;;;;5.10;1.60;;;;;;;25.89;38.92;101406.91;108874;279;39453;-75
2023/09/15 08:54:04;;;;;;;3.50;1.10;;;;;;;26.04;39.04;101404.41;108892;279;38768;-76
2023/09/15 08:56:38;;;;;;;3.60;1.40;;;;;;;26.33;38.96;101403.58;108819;279;39599;-76
2023/09/15 08:59:13;;;;;;;5.20;1.50;;;;;;;26.66;39.24;101402.48;108865;279;38445;-76
2023/09/15 09:01:47;;;;;;;5.70;1.70;;;;;;;26.95;38.08;101403.06;108920;279;38459;-76
2023/09/15 09:04:22;;;;;;;3.00;1.10;;;;;;;27.01;37.84;101406.13;108871;279;38185;-76
2023/09/15 09:06:56;;;;;;;2.40;1.40;;;;;;;26.85;36.43;101401.50;108886;279;38260;-76
2023/09/15 09:09:33;;;;;;;4.40;1.30;;;;;;;26.64;37.19;101399.67;108878;279;38144;-76
2023/09/15 09:12:11;;;;;;;3.50;1.20;;;;;;;26.32;37.85;101399.09;108880;279;38918;-76
2023/09/15 09:14:45;;;;;;;2.60;1.30;;;;;;;26.07;38.42;101404.27;108994;279;38188;-76
2023/09/15 09:17:24;;;;;;;1.80;1.20;;;;;;;25.79;38.52;101398.98;108973;279;38183;-76
2023/09/15 09:20:02;;;;;;;2.00;1.20;;;;;;;25.68;38.02;101402.79;108988;279;38164;-76
2023/09/15 09:22:37;;;;;;;2.50;1.50;;;;;;;25.65;37.35;101403.02;108913;279;40265;-76
2023/09/15 09:25:12;;;;;;;3.10;1.30;;;;;;;25.67;38.02;101407.35;108972;279;38253;-77
2023/09/15 09:27:46;;;;;;;4.40;1.30;;;;;;;26.06;38.00;101399.39;108948;279;39729;-76
2023/09/15 09:30:23;;;;;;;3.40;1.40;;;;;;;26.57;37.42;101405.78;108877;277;38777;-76
2023/09/15 09:32:57;;;;;;;2.10;1.30;;;;;;;27.00;36.48;101407.15;108906;279;38164;-76
2023/09/15 09:35:33;;;;;;;3.40;1.30;;;;;;;27.31;33.70;101403.38;108852;279;38627;-76
2023/09/15 09:38:11;;;;;;;3.20;1.30;;;;;;;27.23;34.62;101402.73;108872;279;38184;-76
2023/09/15 09:40:46;;;;;;;2.70;1.20;;;;;;;27.32;35.00;101398.54;108885;279;38261;-76
2023/09/15 09:43:23;;;;;;;2.20;1.50;;;;;;;27.18;34.35;101401.70;108850;279;38287;-77
2023/09/15 09:45:57;;;;;;;3.10;1.40;;;;;;;26.83;33.74;101399.69;108850;279;38179;-77
2023/09/15 09:48:32;;;;;;;5.20;1.50;;;;;;;26.35;34.68;101400.04;108896;279;38260;-75
2023/09/15 09:51:10;;;;;;;1.80;1.20;;;;;;;26.03;35.46;101404.32;108869;279;38434;-76
2023/09/15 09:53:44;;;;;;;1.40;1.30;;;;;;;25.72;35.64;101404.43;108843;279;39553;-75
2023/09/15 09:56:19;;;;;;;4.00;1.40;;;;;;;25.43;36.53;101401.73;108957;279;39348;-76
2023/09/15 09:58:55;;;;;;;2.10;1.50;;;;;;;25.14;36.42;101400.74;108921;279;38264;-76
2023/09/15 10:01:34;;;;;;;5.50;1.50;;;;;;;24.79;37.10;101407.57;108969;279;39861;-75
2023/09/15 10:04:14;;;;;;;6.00;1.90;;;;;;;24.45;37.07;101402.56;109005;279;38284;-75
2023/09/15 10:06:49;;;;;;;7.40;1.70;;;;;;;24.06;37.58;101409.38;108955;279;39380;-75
2023/09/15 10:09:24;;;;;;;2.00;1.30;;;;;;;23.74;37.68;101414.54;108954;279;38327;-74
2023/09/15 10:12:00;;;;;;;4.20;1.50;;;;;;;23.38;37.44;101408.19;108788;279;39317;-74
2023/09/15 10:14:34;;;;;;;2.10;1.10;;;;;;;23.04;38.19;101408.39;108897;279;38289;-75
2023/09/15 10:17:09;;;;;;;6.80;1.90;;;;;;;22.86;38.40;101406.02;108865;279;39614;-75
2023/09/15 10:19:48;;;;;;;4.00;1.40;;;;;;;22.66;38.94;101413.50;108950;279;38197;-75
2023/09/15 10:22:25;;;;;;;3.10;1.50;;;;;;;22.45;39.06;101410.77;108884;279;38804;-77
2023/09/15 10:25:04;;;;;;;4.60;1.30;;;;;;;22.29;39.64;101408.31;108878;279;38220;-75
2023/09/15 10:27:41;;;;;;;3.80;1.60;;;;;;;22.17;39.29;101408.50;108850;279;38434;-75
2023/09/15 10:30:17;;;;;;;3.70;1.40;;;;;;;22.01;40.00;101407.93;108874;279;39428;-76
2023/09/15 10:32:53;;;;;;;3.90;1.70;;;;;;;21.90;39.92;101401.21;108871;279;38921;-75
2023/09/15 10:35:27;;;;;;;3.10;1.20;;;;;;;21.86;40.50;101398.85;108942;279;39013;-75
2023/09/15 10:38:07;;;;;;;3.70;1.80;;;;;;;21.89;40.81;101399.73;108914;279;38559;-75
2023/09/15 10:40:54;;;;;;;3.20;1.50;;;;;;;21.87;40.97;101399.70;108965;279;38588;-74
2023/09/15 10:43:32;;;;;;;4.20;1.60;;;;;;;21.79;40.75;101400.93;108939;279;39222;-74
2023/09/15 10:46:08;;;;;;;4.40;1.40;;;;;;;21.70;40.89;101397.33;108891;279;38260;-74
2023/09/15 10:48:44;;;;;;;3.40;1.60;;;;;;;21.63;40.78;101396.50;108979;279;38927;-74
2023/09/15 10:51:24;;;;;;;5.40;1.30;;;;;;;21.50;40.97;101400.83;108998;279;38677;-75
2023/09/15 10:54:00;;;;;;;4.00;1.30;;;;;;;21.42;41.31;101397.77;108956;279;38253;-76
2023/09/15 10:56:36;;;;;;;3.20;1.60;;;;;;;21.38;41.59;101398.93;108803;279;38849;-76
2023/09/15 10:59:10;;;;;;;5.90;1.50;;;;;;;21.35;41.76;101395.20;108888;279;38363;-75
2023/09/15 11:01:50;;;;;;;4.50;1.40;;;;;;;21.29;41.77;101394.20;108895;279;39504;-75
2023/09/15 11:04:28;;;;;;;5.50;1.40;;;;;;;21.29;42.65;101397.54;108886;279;39596;-75
2023/09/15 11:07:04;;;;;;;2.50;1.60;;;;;;;21.32;42.20;101398.29;108932;279;38806;-75
2023/09/15 11:09:43;;;;;;;4.10;1.50;;;;;;;21.29;42.13;101396.67;108938;279;38732;-75
2023/09/15 11:12:20;;;;;;;;;;;;;;;21.29;42.27;101395.94;108900;279;38600;-76
2023/09/15 11:15:03;;;;;;;2.80;1.20;;;;;;;21.23;41.45;101400.11;108964;279;38663;-76
2023/09/15 11:17:46;;;;;;;3.40;1.90;;;;;;;21.13;41.27;101400.71;108929;279;38309;-76
2023/09/15 11:20:25;;;;;;;2.00;1.50;;;;;;;21.06;41.43;101402.83;108877;279;38353;-77
2023/09/15 11:23:00;;;;;;;2.70;1.40;;;;;;;21.00;41.76;101400.56;108919;279;38544;-75
2023/09/15 11:25:36;;;;;;;3.50;1.40;;;;;;;20.98;42.24;101394.80;108913;279;38199;-75
2023/09/15 11:28:16;;;;;;;5.20;1.60;;;;;;;20.98;42.14;101390.73;108985;279;39168;-76
2023/09/15 11:30:56;;;;;;;2.30;1.50;;;;;;;20.94;42.19;101390.85;108841;279;40486;-75
2023/09/15 11:33:32;;;;;;;2.60;1.30;;;;;;;20.87;41.98;101387.75;108938;279;38643;-76
2023/09/15 11:36:10;;;;;;;5.20;1.50;;;;;;;20.79;41.76;101382.90;108936;279;38229;-76
2023/09/15 11:38:44;;;;;;;2.40;1.50;;;;;;;20.72;42.25;101383.42;108942;279;38716;-75
2023/09/15 11:41:32;;;;;;;1.50;1.20;;;;;;;20.73;42.18;101385.79;109048;279;38771;-75
2023/09/15 11:44:08;;;;;;;3.20;1.50;;;;;;;20.71;42.12;101378.33;108981;279;38464;-75
2023/09/15 11:46:43;;;;;;;4.00;1.50;;;;;;;20.71;42.35;101378.10;108907;279;38765;-75
2023/09/15 11:49:21;;;;;;;5.10;1.60;;;;;;;20.74;42.36;101377.39;108927;279;39658;-75
2023/09/15 11:52:03;;;;;;;3.30;2.30;;;;;;;20.76;42.30;101377.27;108895;279;38464;-75
2023/09/15 11:54:45;;;;;;;6.80;1.70;;;;;;;20.77;42.15;101379.89;108909;279;38858;-75
2023/09/15 11:57:22;;;;;;;3.00;2.10;;;;;;;20.71;41.71;101373.71;108892;279;38449;-77
2023/09/15 11:59:56;;;;;;;3.60;1.90;;;;;;;20.65;42.27;101369.28;108887;279;39651;-75
2023/09/15 12:02:31;;;;;;;5.20;1.60;;;;;;;20.64;42.08;101368.86;108913;279;39634;-77
2023/09/15 12:05:13;;;;;;;5.10;1.60;;;;;;;20.63;42.32;101370.13;108897;279;38504;-77
2023/09/15 12:07:48;;;;;;;2.90;1.50;;;;;;;20.59;42.02;101368.41;108919;279;39642;-75
2023/09/15 12:10:25;;;;;;;3.30;1.70;;;;;;;20.56;42.15;101365.80;108908;279;39893;-76
2023/09/15 12:13:03;;;;;;;2.70;1.60;;;;;;;20.55;42.25;101364.94;108948;279;39638;-75